sensor_id;sensor_type;location;lat;lon;timestamp;P1;durP1;ratioP1;P2;durP2;ratioP2
9972;SDS011;5027;53.560;10.062;2024-01-30T00:00:44;8.90;;;6.43;;
9972;SDS011;5027;53.560;10.062;2024-01-30T00:03:11;8.00;;;6.27;;
9972;SDS011;5027;53.560;10.062;2024-01-30T00:05:38;8.70;;;6.77;;
9972;SDS011;5027;53.560;10.062;2024-01-30T00:08:05;8.07;;;6.40;;
9972;SDS011;5027;53.560;10.062;2024-01-30T00:10:32;11.57;;;7.70;;
9972;SDS011;5027;53.560;10.062;2024-01-30T00:12:58;8.40;;;6.70;;
9972;SDS011;5027;53.560;10.062;2024-01-30T00:15:25;9.03;;;6.37;;
9972;SDS011;5027;53.560;10.062;2024-01-30T00:17:52;9.87;;;6.00;;
9972;SDS011;5027;53.560;10.062;2024-01-30T00:20:20;7.23;;;5.70;;
9972;SDS011;5027;53.560;10.062;2024-01-30T00:22:47;8.83;;;6.13;;
9972;SDS011;5027;53.560;10.062;2024-01-30T00:25:14;8.50;;;6.87;;
9972;SDS011;5027;53.560;10.062;2024-01-30T00:27:41;7.33;;;5.80;;
9972;SDS011;5027;53.560;10.062;2024-01-30T00:30:08;8.80;;;6.33;;
9972;SDS011;5027;53.560;10.062;2024-01-30T00:32:35;6.80;;;6.10;;
9972;SDS011;5027;53.560;10.062;2024-01-30T00:35:02;9.00;;;6.20;;
9972;SDS011;5027;53.560;10.062;2024-01-30T00:37:29;8.53;;;6.80;;
9972;SDS011;5027;53.560;10.062;2024-01-30T00:39:57;8.43;;;6.03;;
9972;SDS011;5027;53.560;10.062;2024-01-30T00:42:25;7.87;;;5.57;;
9972;SDS011;5027;53.560;10.062;2024-01-30T00:44:52;8.07;;;5.53;;
9972;SDS011;5027;53.560;10.062;2024-01-30T00:47:19;9.77;;;6.10;;
9972;SDS011;5027;53.560;10.062;2024-01-30T00:49:45;7.73;;;6.00;;
9972;SDS011;5027;53.560;10.062;2024-01-30T00:52:12;6.67;;;5.60;;
9972;SDS011;5027;53.560;10.062;2024-01-30T00:54:39;6.93;;;6.10;;
9972;SDS011;5027;53.560;10.062;2024-01-30T00:57:06;8.53;;;5.80;;
9972;SDS011;5027;53.560;10.062;2024-01-30T00:59:33;7.90;;;6.07;;
9972;SDS011;5027;53.560;10.062;2024-01-30T01:01:59;7.27;;;5.70;;
9972;SDS011;5027;53.560;10.062;2024-01-30T01:04:26;6.87;;;5.90;;
9972;SDS011;5027;53.560;10.062;2024-01-30T01:06:53;7.27;;;6.07;;
9972;SDS011;5027;53.560;10.062;2024-01-30T01:09:20;6.43;;;5.47;;
9972;SDS011;5027;53.560;10.062;2024-01-30T01:11:47;7.43;;;5.37;;
9972;SDS011;5027;53.560;10.062;2024-01-30T01:14:14;7.77;;;5.30;;
9972;SDS011;5027;53.560;10.062;2024-01-30T01:16:40;7.27;;;5.93;;
9972;SDS011;5027;53.560;10.062;2024-01-30T01:19:07;6.47;;;5.23;;
9972;SDS011;5027;53.560;10.062;2024-01-30T01:21:34;8.27;;;5.90;;
9972;SDS011;5027;53.560;10.062;2024-01-30T01:24:01;8.50;;;5.80;;
9972;SDS011;5027;53.560;10.062;2024-01-30T01:26:27;8.03;;;5.90;;
9972;SDS011;5027;53.560;10.062;2024-01-30T01:28:55;9.27;;;6.07;;
9972;SDS011;5027;53.560;10.062;2024-01-30T01:31:21;6.90;;;5.50;;
9972;SDS011;5027;53.560;10.062;2024-01-30T01:33:51;7.50;;;6.20;;
9972;SDS011;5027;53.560;10.062;2024-01-30T01:36:18;9.47;;;6.23;;
9972;SDS011;5027;53.560;10.062;2024-01-30T01:38:44;8.67;;;6.13;;
9972;SDS011;5027;53.560;10.062;2024-01-30T01:41:11;7.67;;;5.67;;
9972;SDS011;5027;53.560;10.062;2024-01-30T01:43:38;6.97;;;5.93;;
9972;SDS011;5027;53.560;10.062;2024-01-30T01:46:06;7.10;;;5.80;;
9972;SDS011;5027;53.560;10.062;2024-01-30T01:48:33;6.60;;;5.87;;
9972;SDS011;5027;53.560;10.062;2024-01-30T01:51:00;7.10;;;5.80;;
9972;SDS011;5027;53.560;10.062;2024-01-30T01:53:27;8.03;;;6.00;;
9972;SDS011;5027;53.560;10.062;2024-01-30T01:55:54;10.57;;;5.97;;
9972;SDS011;5027;53.560;10.062;2024-01-30T01:58:21;9.50;;;5.57;;
9972;SDS011;5027;53.560;10.062;2024-01-30T02:00:50;6.00;;;5.13;;
9972;SDS011;5027;53.560;10.062;2024-01-30T02:03:17;9.23;;;5.80;;
9972;SDS011;5027;53.560;10.062;2024-01-30T02:05:47;6.20;;;5.60;;
9972;SDS011;5027;53.560;10.062;2024-01-30T02:08:15;7.87;;;6.13;;
9972;SDS011;5027;53.560;10.062;2024-01-30T02:10:42;7.67;;;5.83;;
9972;SDS011;5027;53.560;10.062;2024-01-30T02:13:09;7.33;;;5.67;;
9972;SDS011;5027;53.560;10.062;2024-01-30T02:15:35;7.53;;;5.50;;
9972;SDS011;5027;53.560;10.062;2024-01-30T02:18:02;8.83;;;6.00;;
9972;SDS011;5027;53.560;10.062;2024-01-30T02:20:29;7.67;;;6.03;;
9972;SDS011;5027;53.560;10.062;2024-01-30T02:22:58;8.67;;;5.57;;
9972;SDS011;5027;53.560;10.062;2024-01-30T02:25:38;7.30;;;5.63;;
9972;SDS011;5027;53.560;10.062;2024-01-30T02:28:11;7.83;;;5.63;;
9972;SDS011;5027;53.560;10.062;2024-01-30T02:30:38;7.10;;;5.97;;
9972;SDS011;5027;53.560;10.062;2024-01-30T02:33:06;8.53;;;6.37;;
9972;SDS011;5027;53.560;10.062;2024-01-30T02:35:32;8.63;;;6.10;;
9972;SDS011;5027;53.560;10.062;2024-01-30T02:38:00;7.73;;;6.30;;
9972;SDS011;5027;53.560;10.062;2024-01-30T02:40:27;7.60;;;6.40;;
9972;SDS011;5027;53.560;10.062;2024-01-30T02:42:54;7.83;;;6.10;;
9972;SDS011;5027;53.560;10.062;2024-01-30T02:45:21;7.70;;;6.20;;
9972;SDS011;5027;53.560;10.062;2024-01-30T02:47:48;6.47;;;5.73;;
9972;SDS011;5027;53.560;10.062;2024-01-30T02:50:14;7.47;;;6.03;;
9972;SDS011;5027;53.560;10.062;2024-01-30T02:52:42;8.70;;;6.27;;
9972;SDS011;5027;53.560;10.062;2024-01-30T02:55:12;7.57;;;5.77;;
9972;SDS011;5027;53.560;10.062;2024-01-30T02:57:39;9.87;;;6.03;;
9972;SDS011;5027;53.560;10.062;2024-01-30T03:00:06;9.73;;;6.30;;
9972;SDS011;5027;53.560;10.062;2024-01-30T03:02:35;8.97;;;6.17;;
9972;SDS011;5027;53.560;10.062;2024-01-30T03:05:04;8.83;;;6.03;;
9972;SDS011;5027;53.560;10.062;2024-01-30T03:07:31;8.30;;;6.53;;
9972;SDS011;5027;53.560;10.062;2024-01-30T03:09:59;8.03;;;6.43;;
9972;SDS011;5027;53.560;10.062;2024-01-30T03:12:27;8.30;;;5.87;;
9972;SDS011;5027;53.560;10.062;2024-01-30T03:14:54;7.80;;;6.33;;
9972;SDS011;5027;53.560;10.062;2024-01-30T03:17:20;8.07;;;6.77;;
9972;SDS011;5027;53.560;10.062;2024-01-30T03:19:47;8.93;;;6.33;;
9972;SDS011;5027;53.560;10.062;2024-01-30T03:22:14;7.60;;;6.77;;
9972;SDS011;5027;53.560;10.062;2024-01-30T03:24:41;8.33;;;6.70;;
9972;SDS011;5027;53.560;10.062;2024-01-30T03:27:08;8.10;;;6.40;;
9972;SDS011;5027;53.560;10.062;2024-01-30T03:29:35;9.40;;;6.60;;
9972;SDS011;5027;53.560;10.062;2024-01-30T03:32:02;8.90;;;6.10;;
9972;SDS011;5027;53.560;10.062;2024-01-30T03:34:30;6.03;;;5.43;;
9972;SDS011;5027;53.560;10.062;2024-01-30T03:36:57;11.53;;;6.50;;
9972;SDS011;5027;53.560;10.062;2024-01-30T03:39:24;7.43;;;6.53;;
9972;SDS011;5027;53.560;10.062;2024-01-30T03:41:51;8.47;;;6.30;;
9972;SDS011;5027;53.560;10.062;2024-01-30T03:44:17;9.13;;;6.93;;
9972;SDS011;5027;53.560;10.062;2024-01-30T03:46:44;7.73;;;6.40;;
9972;SDS011;5027;53.560;10.062;2024-01-30T03:49:11;7.70;;;6.27;;
9972;SDS011;5027;53.560;10.062;2024-01-30T03:51:38;8.30;;;6.57;;
9972;SDS011;5027;53.560;10.062;2024-01-30T03:54:05;10.17;;;7.33;;
9972;SDS011;5027;53.560;10.062;2024-01-30T03:56:32;9.43;;;6.43;;
9972;SDS011;5027;53.560;10.062;2024-01-30T03:58:58;8.17;;;6.97;;
9972;SDS011;5027;53.560;10.062;2024-01-30T04:01:26;7.07;;;6.20;;
9972;SDS011;5027;53.560;10.062;2024-01-30T04:03:53;8.73;;;6.60;;
9972;SDS011;5027;53.560;10.062;2024-01-30T04:06:20;7.73;;;6.93;;
9972;SDS011;5027;53.560;10.062;2024-01-30T04:08:47;7.67;;;6.77;;
9972;SDS011;5027;53.560;10.062;2024-01-30T04:11:13;8.03;;;6.37;;
9972;SDS011;5027;53.560;10.062;2024-01-30T04:13:40;7.13;;;6.40;;
9972;SDS011;5027;53.560;10.062;2024-01-30T04:16:18;8.33;;;6.93;;
9972;SDS011;5027;53.560;10.062;2024-01-30T04:18:46;10.43;;;7.10;;
9972;SDS011;5027;53.560;10.062;2024-01-30T04:21:13;7.73;;;6.50;;
9972;SDS011;5027;53.560;10.062;2024-01-30T04:23:40;8.93;;;6.87;;
9972;SDS011;5027;53.560;10.062;2024-01-30T04:26:07;7.83;;;6.33;;
9972;SDS011;5027;53.560;10.062;2024-01-30T04:28:34;9.53;;;7.33;;
9972;SDS011;5027;53.560;10.062;2024-01-30T04:31:01;9.03;;;7.30;;
9972;SDS011;5027;53.560;10.062;2024-01-30T04:33:30;8.27;;;7.30;;
9972;SDS011;5027;53.560;10.062;2024-01-30T04:35:56;9.83;;;7.10;;
9972;SDS011;5027;53.560;10.062;2024-01-30T04:38:23;10.70;;;7.23;;
9972;SDS011;5027;53.560;10.062;2024-01-30T04:40:50;8.83;;;7.10;;
9972;SDS011;5027;53.560;10.062;2024-01-30T04:43:17;8.10;;;7.10;;
9972;SDS011;5027;53.560;10.062;2024-01-30T04:45:45;12.07;;;7.40;;
9972;SDS011;5027;53.560;10.062;2024-01-30T04:48:12;8.13;;;7.03;;
9972;SDS011;5027;53.560;10.062;2024-01-30T04:50:38;9.30;;;7.07;;
9972;SDS011;5027;53.560;10.062;2024-01-30T04:53:05;8.10;;;7.30;;
9972;SDS011;5027;53.560;10.062;2024-01-30T04:55:32;8.63;;;7.73;;
9972;SDS011;5027;53.560;10.062;2024-01-30T04:57:59;8.13;;;7.10;;
9972;SDS011;5027;53.560;10.062;2024-01-30T05:00:26;11.60;;;7.80;;
9972;SDS011;5027;53.560;10.062;2024-01-30T05:02:54;9.33;;;7.27;;
9972;SDS011;5027;53.560;10.062;2024-01-30T05:05:21;9.30;;;7.67;;
9972;SDS011;5027;53.560;10.062;2024-01-30T05:07:48;8.33;;;7.13;;
9972;SDS011;5027;53.560;10.062;2024-01-30T05:10:15;8.60;;;7.13;;
9972;SDS011;5027;53.560;10.062;2024-01-30T05:12:42;9.10;;;7.60;;
9972;SDS011;5027;53.560;10.062;2024-01-30T05:15:09;10.37;;;8.00;;
9972;SDS011;5027;53.560;10.062;2024-01-30T05:17:35;8.50;;;7.00;;
9972;SDS011;5027;53.560;10.062;2024-01-30T05:20:03;8.13;;;7.23;;
9972;SDS011;5027;53.560;10.062;2024-01-30T05:22:31;11.37;;;7.60;;
9972;SDS011;5027;53.560;10.062;2024-01-30T05:24:57;8.47;;;7.53;;
9972;SDS011;5027;53.560;10.062;2024-01-30T05:27:24;10.33;;;7.73;;
9972;SDS011;5027;53.560;10.062;2024-01-30T05:29:51;9.67;;;7.73;;
9972;SDS011;5027;53.560;10.062;2024-01-30T05:32:18;9.50;;;8.23;;
9972;SDS011;5027;53.560;10.062;2024-01-30T05:34:44;9.83;;;7.93;;
9972;SDS011;5027;53.560;10.062;2024-01-30T05:37:11;10.60;;;7.60;;
9972;SDS011;5027;53.560;10.062;2024-01-30T05:39:40;11.13;;;7.53;;
9972;SDS011;5027;53.560;10.062;2024-01-30T05:42:10;9.20;;;7.73;;
9972;SDS011;5027;53.560;10.062;2024-01-30T05:44:38;8.93;;;7.33;;
9972;SDS011;5027;53.560;10.062;2024-01-30T05:47:04;9.47;;;7.60;;
9972;SDS011;5027;53.560;10.062;2024-01-30T05:49:31;9.23;;;8.20;;
9972;SDS011;5027;53.560;10.062;2024-01-30T05:51:58;11.43;;;8.23;;
9972;SDS011;5027;53.560;10.062;2024-01-30T05:54:25;9.40;;;8.00;;
9972;SDS011;5027;53.560;10.062;2024-01-30T05:56:52;12.57;;;8.50;;
9972;SDS011;5027;53.560;10.062;2024-01-30T05:59:19;9.23;;;8.20;;
9972;SDS011;5027;53.560;10.062;2024-01-30T06:01:48;10.63;;;8.43;;
9972;SDS011;5027;53.560;10.062;2024-01-30T06:04:15;11.23;;;8.47;;
9972;SDS011;5027;53.560;10.062;2024-01-30T06:06:42;13.00;;;9.07;;
9972;SDS011;5027;53.560;10.062;2024-01-30T06:09:09;11.93;;;8.80;;
9972;SDS011;5027;53.560;10.062;2024-01-30T06:11:36;9.40;;;8.40;;
9972;SDS011;5027;53.560;10.062;2024-01-30T06:14:03;12.97;;;9.00;;
9972;SDS011;5027;53.560;10.062;2024-01-30T06:16:29;13.17;;;8.60;;
9972;SDS011;5027;53.560;10.062;2024-01-30T06:18:56;13.27;;;8.57;;
9972;SDS011;5027;53.560;10.062;2024-01-30T06:21:23;9.57;;;8.07;;
9972;SDS011;5027;53.560;10.062;2024-01-30T06:23:50;10.53;;;8.13;;
9972;SDS011;5027;53.560;10.062;2024-01-30T06:26:17;11.10;;;7.97;;
9972;SDS011;5027;53.560;10.062;2024-01-30T06:28:43;10.53;;;8.23;;
9972;SDS011;5027;53.560;10.062;2024-01-30T06:31:10;12.03;;;8.57;;
9972;SDS011;5027;53.560;10.062;2024-01-30T06:33:37;9.40;;;7.87;;
9972;SDS011;5027;53.560;10.062;2024-01-30T06:36:04;10.30;;;7.67;;
9972;SDS011;5027;53.560;10.062;2024-01-30T06:38:31;10.70;;;7.87;;
9972;SDS011;5027;53.560;10.062;2024-01-30T06:40:57;9.13;;;8.23;;
9972;SDS011;5027;53.560;10.062;2024-01-30T06:43:24;13.87;;;8.17;;
9972;SDS011;5027;53.560;10.062;2024-01-30T06:45:51;11.03;;;8.30;;
9972;SDS011;5027;53.560;10.062;2024-01-30T06:48:18;10.33;;;8.47;;
9972;SDS011;5027;53.560;10.062;2024-01-30T06:50:45;10.43;;;9.03;;
9972;SDS011;5027;53.560;10.062;2024-01-30T06:53:12;10.40;;;8.87;;
9972;SDS011;5027;53.560;10.062;2024-01-30T06:55:39;10.90;;;8.87;;
9972;SDS011;5027;53.560;10.062;2024-01-30T06:58:05;13.27;;;8.80;;
9972;SDS011;5027;53.560;10.062;2024-01-30T07:00:32;13.23;;;10.53;;
9972;SDS011;5027;53.560;10.062;2024-01-30T07:02:59;13.80;;;9.83;;
9972;SDS011;5027;53.560;10.062;2024-01-30T07:05:26;11.47;;;8.43;;
9972;SDS011;5027;53.560;10.062;2024-01-30T07:07:53;12.43;;;8.83;;
9972;SDS011;5027;53.560;10.062;2024-01-30T07:10:19;13.37;;;8.73;;
9972;SDS011;5027;53.560;10.062;2024-01-30T07:12:47;10.67;;;9.20;;
9972;SDS011;5027;53.560;10.062;2024-01-30T07:15:13;13.97;;;8.47;;
9972;SDS011;5027;53.560;10.062;2024-01-30T07:17:43;11.17;;;8.37;;
9972;SDS011;5027;53.560;10.062;2024-01-30T07:20:10;12.57;;;8.73;;
9972;SDS011;5027;53.560;10.062;2024-01-30T07:22:42;13.20;;;8.37;;
9972;SDS011;5027;53.560;10.062;2024-01-30T07:25:10;13.70;;;8.83;;
9972;SDS011;5027;53.560;10.062;2024-01-30T07:27:37;10.13;;;8.60;;
9972;SDS011;5027;53.560;10.062;2024-01-30T07:30:03;11.57;;;9.00;;
9972;SDS011;5027;53.560;10.062;2024-01-30T07:32:31;16.37;;;10.47;;
9972;SDS011;5027;53.560;10.062;2024-01-30T07:34:58;13.47;;;10.00;;
9972;SDS011;5027;53.560;10.062;2024-01-30T07:37:34;15.00;;;10.23;;
9972;SDS011;5027;53.560;10.062;2024-01-30T07:40:01;14.77;;;10.60;;
9972;SDS011;5027;53.560;10.062;2024-01-30T07:42:30;12.10;;;10.43;;
9972;SDS011;5027;53.560;10.062;2024-01-30T07:44:56;14.97;;;9.43;;
9972;SDS011;5027;53.560;10.062;2024-01-30T07:47:23;10.77;;;9.17;;
9972;SDS011;5027;53.560;10.062;2024-01-30T07:49:50;10.77;;;9.03;;
9972;SDS011;5027;53.560;10.062;2024-01-30T07:52:18;13.03;;;8.87;;
9972;SDS011;5027;53.560;10.062;2024-01-30T07:54:44;10.97;;;9.13;;
9972;SDS011;5027;53.560;10.062;2024-01-30T07:57:11;12.10;;;9.67;;
9972;SDS011;5027;53.560;10.062;2024-01-30T07:59:38;11.40;;;8.77;;
9972;SDS011;5027;53.560;10.062;2024-01-30T08:02:04;12.53;;;9.43;;
9972;SDS011;5027;53.560;10.062;2024-01-30T08:04:32;14.33;;;9.83;;
9972;SDS011;5027;53.560;10.062;2024-01-30T08:06:58;13.07;;;9.90;;
9972;SDS011;5027;53.560;10.062;2024-01-30T08:09:25;12.33;;;10.13;;
9972;SDS011;5027;53.560;10.062;2024-01-30T08:11:52;10.90;;;9.70;;
9972;SDS011;5027;53.560;10.062;2024-01-30T08:14:19;12.17;;;9.80;;
9972;SDS011;5027;53.560;10.062;2024-01-30T08:16:45;11.80;;;9.97;;
9972;SDS011;5027;53.560;10.062;2024-01-30T08:19:12;13.80;;;9.70;;
9972;SDS011;5027;53.560;10.062;2024-01-30T08:21:40;14.57;;;10.23;;
9972;SDS011;5027;53.560;10.062;2024-01-30T08:24:07;15.10;;;9.93;;
9972;SDS011;5027;53.560;10.062;2024-01-30T08:26:34;11.63;;;10.43;;
9972;SDS011;5027;53.560;10.062;2024-01-30T08:29:01;12.10;;;10.07;;
9972;SDS011;5027;53.560;10.062;2024-01-30T08:31:28;11.10;;;9.70;;
9972;SDS011;5027;53.560;10.062;2024-01-30T08:33:55;12.23;;;9.83;;
9972;SDS011;5027;53.560;10.062;2024-01-30T08:36:22;16.53;;;10.50;;
9972;SDS011;5027;53.560;10.062;2024-01-30T08:38:49;11.93;;;10.40;;
9972;SDS011;5027;53.560;10.062;2024-01-30T08:41:15;14.20;;;10.90;;
9972;SDS011;5027;53.560;10.062;2024-01-30T08:43:42;13.60;;;10.50;;
9972;SDS011;5027;53.560;10.062;2024-01-30T08:46:11;13.23;;;10.67;;
9972;SDS011;5027;53.560;10.062;2024-01-30T08:48:38;13.40;;;10.27;;
9972;SDS011;5027;53.560;10.062;2024-01-30T08:51:04;14.27;;;12.03;;
9972;SDS011;5027;53.560;10.062;2024-01-30T08:53:34;16.97;;;12.07;;
9972;SDS011;5027;53.560;10.062;2024-01-30T08:56:02;13.93;;;11.17;;
9972;SDS011;5027;53.560;10.062;2024-01-30T08:58:29;12.37;;;10.77;;
9972;SDS011;5027;53.560;10.062;2024-01-30T09:00:56;13.87;;;10.40;;
9972;SDS011;5027;53.560;10.062;2024-01-30T09:03:23;18.13;;;11.13;;
9972;SDS011;5027;53.560;10.062;2024-01-30T09:05:54;16.73;;;11.43;;
9972;SDS011;5027;53.560;10.062;2024-01-30T09:08:20;13.67;;;10.70;;
9972;SDS011;5027;53.560;10.062;2024-01-30T09:10:47;14.90;;;11.53;;
9972;SDS011;5027;53.560;10.062;2024-01-30T09:13:16;12.53;;;10.77;;
9972;SDS011;5027;53.560;10.062;2024-01-30T09:15:42;14.33;;;11.07;;
9972;SDS011;5027;53.560;10.062;2024-01-30T09:18:09;16.90;;;11.60;;
9972;SDS011;5027;53.560;10.062;2024-01-30T09:20:36;15.23;;;10.77;;
9972;SDS011;5027;53.560;10.062;2024-01-30T09:23:03;12.23;;;10.40;;
9972;SDS011;5027;53.560;10.062;2024-01-30T09:25:30;16.93;;;11.10;;
9972;SDS011;5027;53.560;10.062;2024-01-30T09:27:57;14.77;;;10.90;;
9972;SDS011;5027;53.560;10.062;2024-01-30T09:30:24;14.00;;;11.00;;
9972;SDS011;5027;53.560;10.062;2024-01-30T09:32:50;13.57;;;11.40;;
9972;SDS011;5027;53.560;10.062;2024-01-30T09:35:17;15.57;;;11.63;;
9972;SDS011;5027;53.560;10.062;2024-01-30T09:37:44;15.63;;;11.00;;
9972;SDS011;5027;53.560;10.062;2024-01-30T09:40:11;21.93;;;11.33;;
9972;SDS011;5027;53.560;10.062;2024-01-30T09:42:38;12.80;;;11.20;;
9972;SDS011;5027;53.560;10.062;2024-01-30T09:45:06;13.47;;;11.40;;
9972;SDS011;5027;53.560;10.062;2024-01-30T09:47:40;14.33;;;10.80;;
9972;SDS011;5027;53.560;10.062;2024-01-30T09:50:11;12.77;;;11.37;;
9972;SDS011;5027;53.560;10.062;2024-01-30T09:52:39;12.80;;;11.47;;
9972;SDS011;5027;53.560;10.062;2024-01-30T09:55:07;12.20;;;10.47;;
9972;SDS011;5027;53.560;10.062;2024-01-30T09:57:34;13.77;;;11.03;;
9972;SDS011;5027;53.560;10.062;2024-01-30T10:00:02;14.83;;;11.87;;
9972;SDS011;5027;53.560;10.062;2024-01-30T10:02:37;14.37;;;11.03;;
9972;SDS011;5027;53.560;10.062;2024-01-30T10:05:04;16.10;;;11.97;;
9972;SDS011;5027;53.560;10.062;2024-01-30T10:07:32;13.57;;;10.80;;
9972;SDS011;5027;53.560;10.062;2024-01-30T10:09:59;16.07;;;10.57;;
9972;SDS011;5027;53.560;10.062;2024-01-30T10:12:26;17.47;;;10.77;;
9972;SDS011;5027;53.560;10.062;2024-01-30T10:14:55;17.07;;;11.73;;
9972;SDS011;5027;53.560;10.062;2024-01-30T10:17:24;22.23;;;11.53;;
9972;SDS011;5027;53.560;10.062;2024-01-30T10:19:59;13.10;;;11.37;;
9972;SDS011;5027;53.560;10.062;2024-01-30T10:22:27;16.20;;;11.37;;
9972;SDS011;5027;53.560;10.062;2024-01-30T10:24:54;12.13;;;10.83;;
9972;SDS011;5027;53.560;10.062;2024-01-30T10:27:30;16.63;;;11.77;;
9972;SDS011;5027;53.560;10.062;2024-01-30T10:29:57;13.43;;;11.03;;
9972;SDS011;5027;53.560;10.062;2024-01-30T10:32:25;13.20;;;11.57;;
9972;SDS011;5027;53.560;10.062;2024-01-30T10:34:52;13.80;;;11.00;;
9972;SDS011;5027;53.560;10.062;2024-01-30T10:37:19;15.53;;;10.90;;
9972;SDS011;5027;53.560;10.062;2024-01-30T10:39:52;15.47;;;11.50;;
9972;SDS011;5027;53.560;10.062;2024-01-30T10:42:21;14.90;;;10.77;;
9972;SDS011;5027;53.560;10.062;2024-01-30T10:45:06;12.67;;;11.13;;
9972;SDS011;5027;53.560;10.062;2024-01-30T10:47:35;15.77;;;10.60;;
9972;SDS011;5027;53.560;10.062;2024-01-30T10:50:03;12.43;;;10.23;;
9972;SDS011;5027;53.560;10.062;2024-01-30T10:52:30;20.07;;;11.00;;
9972;SDS011;5027;53.560;10.062;2024-01-30T10:54:59;15.13;;;10.67;;
9972;SDS011;5027;53.560;10.062;2024-01-30T10:57:26;15.07;;;10.60;;
9972;SDS011;5027;53.560;10.062;2024-01-30T10:59:55;13.00;;;10.17;;
9972;SDS011;5027;53.560;10.062;2024-01-30T11:02:24;16.23;;;11.30;;
9972;SDS011;5027;53.560;10.062;2024-01-30T11:05:01;15.30;;;10.80;;
9972;SDS011;5027;53.560;10.062;2024-01-30T11:07:31;15.80;;;11.70;;
9972;SDS011;5027;53.560;10.062;2024-01-30T11:12:27;16.03;;;10.90;;
9972;SDS011;5027;53.560;10.062;2024-01-30T11:15:01;14.13;;;11.03;;
9972;SDS011;5027;53.560;10.062;2024-01-30T11:20:27;16.17;;;11.23;;
9972;SDS011;5027;53.560;10.062;2024-01-30T11:22:58;11.67;;;10.50;;
9972;SDS011;5027;53.560;10.062;2024-01-30T11:25:25;15.43;;;11.10;;
9972;SDS011;5027;53.560;10.062;2024-01-30T11:27:54;12.07;;;9.73;;
9972;SDS011;5027;53.560;10.062;2024-01-30T11:30:25;12.90;;;10.23;;
9972;SDS011;5027;53.560;10.062;2024-01-30T11:35:39;13.33;;;10.83;;
9972;SDS011;5027;53.560;10.062;2024-01-30T11:38:14;12.43;;;9.77;;
9972;SDS011;5027;53.560;10.062;2024-01-30T11:40:42;12.13;;;9.77;;
9972;SDS011;5027;53.560;10.062;2024-01-30T11:43:10;13.83;;;9.83;;
9972;SDS011;5027;53.560;10.062;2024-01-30T11:45:38;12.80;;;10.17;;
9972;SDS011;5027;53.560;10.062;2024-01-30T11:48:06;12.80;;;9.30;;
9972;SDS011;5027;53.560;10.062;2024-01-30T11:50:34;13.03;;;10.60;;
9972;SDS011;5027;53.560;10.062;2024-01-30T11:53:02;13.17;;;10.43;;
9972;SDS011;5027;53.560;10.062;2024-01-30T11:55:29;14.67;;;10.33;;
9972;SDS011;5027;53.560;10.062;2024-01-30T11:58:00;13.67;;;10.17;;
9972;SDS011;5027;53.560;10.062;2024-01-30T12:00:29;13.97;;;11.00;;
9972;SDS011;5027;53.560;10.062;2024-01-30T12:02:57;17.53;;;11.20;;
9972;SDS011;5027;53.560;10.062;2024-01-30T12:05:26;13.53;;;10.20;;
9972;SDS011;5027;53.560;10.062;2024-01-30T12:07:54;11.90;;;10.20;;
9972;SDS011;5027;53.560;10.062;2024-01-30T12:10:21;21.37;;;11.17;;
9972;SDS011;5027;53.560;10.062;2024-01-30T12:12:51;12.00;;;10.10;;
9972;SDS011;5027;53.560;10.062;2024-01-30T12:15:18;13.90;;;10.83;;
9972;SDS011;5027;53.560;10.062;2024-01-30T12:17:48;12.50;;;10.40;;
9972;SDS011;5027;53.560;10.062;2024-01-30T12:20:15;11.87;;;10.60;;
9972;SDS011;5027;53.560;10.062;2024-01-30T12:22:46;13.60;;;9.60;;
9972;SDS011;5027;53.560;10.062;2024-01-30T12:25:15;18.33;;;10.43;;
9972;SDS011;5027;53.560;10.062;2024-01-30T12:27:48;13.30;;;11.20;;
9972;SDS011;5027;53.560;10.062;2024-01-30T12:30:19;15.43;;;11.77;;
9972;SDS011;5027;53.560;10.062;2024-01-30T12:32:49;15.37;;;11.00;;
9972;SDS011;5027;53.560;10.062;2024-01-30T12:35:17;12.17;;;10.17;;
9972;SDS011;5027;53.560;10.062;2024-01-30T12:37:46;16.17;;;10.70;;
9972;SDS011;5027;53.560;10.062;2024-01-30T12:40:13;15.70;;;10.03;;
9972;SDS011;5027;53.560;10.062;2024-01-30T12:42:42;13.90;;;10.60;;
9972;SDS011;5027;53.560;10.062;2024-01-30T12:45:09;17.47;;;10.10;;
9972;SDS011;5027;53.560;10.062;2024-01-30T12:47:36;15.07;;;11.30;;
9972;SDS011;5027;53.560;10.062;2024-01-30T12:50:03;18.20;;;10.17;;
9972;SDS011;5027;53.560;10.062;2024-01-30T12:52:31;13.97;;;9.90;;
9972;SDS011;5027;53.560;10.062;2024-01-30T12:54:57;14.00;;;10.50;;
9972;SDS011;5027;53.560;10.062;2024-01-30T12:57:25;18.87;;;11.60;;
9972;SDS011;5027;53.560;10.062;2024-01-30T12:59:51;13.33;;;10.57;;
9972;SDS011;5027;53.560;10.062;2024-01-30T13:02:18;18.87;;;11.53;;
9972;SDS011;5027;53.560;10.062;2024-01-30T13:04:45;14.03;;;9.90;;
9972;SDS011;5027;53.560;10.062;2024-01-30T13:07:15;13.37;;;9.30;;
9972;SDS011;5027;53.560;10.062;2024-01-30T13:09:42;12.83;;;9.40;;
9972;SDS011;5027;53.560;10.062;2024-01-30T13:12:09;13.97;;;9.50;;
9972;SDS011;5027;53.560;10.062;2024-01-30T13:14:36;14.83;;;9.53;;
9972;SDS011;5027;53.560;10.062;2024-01-30T13:17:02;19.53;;;9.67;;
9972;SDS011;5027;53.560;10.062;2024-01-30T13:19:29;11.70;;;9.47;;
9972;SDS011;5027;53.560;10.062;2024-01-30T13:21:56;12.33;;;9.33;;
9972;SDS011;5027;53.560;10.062;2024-01-30T13:24:23;14.23;;;9.10;;
9972;SDS011;5027;53.560;10.062;2024-01-30T13:26:50;10.47;;;8.50;;
9972;SDS011;5027;53.560;10.062;2024-01-30T13:29:18;15.13;;;9.40;;
9972;SDS011;5027;53.560;10.062;2024-01-30T13:31:45;14.10;;;9.10;;
9972;SDS011;5027;53.560;10.062;2024-01-30T13:34:13;13.10;;;9.30;;
9972;SDS011;5027;53.560;10.062;2024-01-30T13:36:40;14.70;;;9.87;;
9972;SDS011;5027;53.560;10.062;2024-01-30T13:39:07;11.33;;;9.37;;
9972;SDS011;5027;53.560;10.062;2024-01-30T13:41:36;10.73;;;9.27;;
9972;SDS011;5027;53.560;10.062;2024-01-30T13:44:04;11.43;;;9.10;;
9972;SDS011;5027;53.560;10.062;2024-01-30T13:46:31;12.93;;;9.57;;
9972;SDS011;5027;53.560;10.062;2024-01-30T13:49:01;13.03;;;9.90;;
9972;SDS011;5027;53.560;10.062;2024-01-30T13:51:28;14.13;;;9.27;;
9972;SDS011;5027;53.560;10.062;2024-01-30T13:53:55;14.20;;;9.60;;
9972;SDS011;5027;53.560;10.062;2024-01-30T13:56:22;12.53;;;9.60;;
9972;SDS011;5027;53.560;10.062;2024-01-30T13:58:49;10.33;;;8.90;;
9972;SDS011;5027;53.560;10.062;2024-01-30T14:01:18;13.20;;;8.90;;
9972;SDS011;5027;53.560;10.062;2024-01-30T14:03:45;14.97;;;9.30;;
9972;SDS011;5027;53.560;10.062;2024-01-30T14:06:12;16.17;;;9.37;;
9972;SDS011;5027;53.560;10.062;2024-01-30T14:08:39;14.93;;;9.63;;
9972;SDS011;5027;53.560;10.062;2024-01-30T14:11:10;12.17;;;9.10;;
9972;SDS011;5027;53.560;10.062;2024-01-30T14:13:37;15.43;;;8.83;;
9972;SDS011;5027;53.560;10.062;2024-01-30T14:16:03;12.27;;;8.70;;
9972;SDS011;5027;53.560;10.062;2024-01-30T14:18:33;11.53;;;8.23;;
9972;SDS011;5027;53.560;10.062;2024-01-30T14:21:00;17.10;;;9.10;;
9972;SDS011;5027;53.560;10.062;2024-01-30T14:23:27;12.70;;;8.27;;
9972;SDS011;5027;53.560;10.062;2024-01-30T14:25:53;9.83;;;8.03;;
9972;SDS011;5027;53.560;10.062;2024-01-30T14:28:20;12.57;;;8.37;;
9972;SDS011;5027;53.560;10.062;2024-01-30T14:30:47;13.97;;;8.43;;
9972;SDS011;5027;53.560;10.062;2024-01-30T14:33:14;13.07;;;8.27;;
9972;SDS011;5027;53.560;10.062;2024-01-30T14:35:41;13.50;;;8.93;;
9972;SDS011;5027;53.560;10.062;2024-01-30T14:38:07;14.40;;;9.07;;
9972;SDS011;5027;53.560;10.062;2024-01-30T14:40:34;12.37;;;8.90;;
9972;SDS011;5027;53.560;10.062;2024-01-30T14:43:01;13.00;;;8.93;;
9972;SDS011;5027;53.560;10.062;2024-01-30T14:45:29;10.77;;;9.17;;
9972;SDS011;5027;53.560;10.062;2024-01-30T14:47:58;12.37;;;8.77;;
9972;SDS011;5027;53.560;10.062;2024-01-30T14:50:26;11.73;;;9.07;;
9972;SDS011;5027;53.560;10.062;2024-01-30T14:52:54;14.03;;;9.23;;
9972;SDS011;5027;53.560;10.062;2024-01-30T14:55:22;13.03;;;8.83;;
9972;SDS011;5027;53.560;10.062;2024-01-30T14:57:48;14.77;;;8.77;;